Time;durP1;ratioP1;P1;durP2;ratioP2;P2;SDS_P1;SDS_P2;PMS_P1;PMS_P2;Temp;Humidity;BMP_temperature;BMP_pressure;BME280_temperature;BME280_humidity;BME280_pressure;Samples;Min_cycle;Max_cycle;Signal;HPM_P1;HPM_P2
2023/08/19 00:00:28;;;;;;;29.80;19.10;;;;;;;22.39;80.66;100512.13;4890450;29;20296;-94
2023/08/19 00:02:55;;;;;;;27.70;18.90;;;;;;;22.15;80.89;100469.44;4859370;29;20422;-92
2023/08/19 00:05:46;;;;;;;31.40;18.77;;;;;;;22.13;80.54;100466.16;4904627;29;20204;-92
2023/08/19 00:08:38;;;;;;;29.95;18.23;;;;;;;22.38;80.31;100502.13;4862672;29;20526;-96
2023/08/19 00:11:17;;;;;;;31.55;18.88;;;;;;;22.08;80.19;100473.97;4902901;29;20069;-93
2023/08/19 00:13:43;;;;;;;29.73;18.92;;;;;;;22.21;80.19;100500.56;4872445;29;20130;-93
2023/08/19 00:16:09;;;;;;;30.67;18.53;;;;;;;22.30;80.19;100512.31;4887850;29;20175;-91
2023/08/19 00:18:35;;;;;;;40.38;17.73;;;;;;;21.99;79.93;100471.41;4889812;29;20036;-93
2023/08/19 00:21:01;;;;;;;32.73;18.63;;;;;;;22.16;79.95;100495.28;4887048;29;20044;-93
2023/08/19 00:23:28;;;;;;;29.47;18.47;;;;;;;22.08;80.13;100479.53;4874592;29;20100;-93
2023/08/19 00:25:57;;;;;;;37.30;18.27;;;;;;;22.01;79.98;100463.47;4889654;29;20296;-93
2023/08/19 00:28:49;;;;;;;28.92;17.00;;;;;;;22.24;79.92;100499.84;4865346;23;20052;-93
2023/08/19 00:31:26;;;;;;;31.50;17.58;;;;;;;22.20;80.08;100504.53;4872584;29;20051;-93
2023/08/19 00:33:53;;;;;;;31.23;18.42;;;;;;;21.92;80.13;100460.06;4802758;29;20478;-93
2023/08/19 00:39:52;;;;;;;30.00;17.10;;;;;;;21.88;79.92;100464.75;4871430;29;20051;-92
2023/08/19 00:45:03;;;;;;;26.55;17.35;;;;;;;21.91;79.70;100477.97;4856402;29;20069;-93
2023/08/19 00:47:30;;;;;;;27.92;17.80;;;;;;;21.85;79.74;100477.41;4909538;23;20063;-93
2023/08/19 00:49:56;;;;;;;23.60;16.98;;;;;;;21.88;79.42;100482.25;4882342;29;20064;-93
2023/08/19 00:52:22;;;;;;;29.23;17.35;;;;;;;21.89;79.77;100480.31;4873248;29;20059;-93
2023/08/19 00:54:54;;;;;;;26.80;17.92;;;;;;;21.57;79.63;100424.66;4904660;29;20043;-93
2023/08/19 00:57:21;;;;;;;26.63;16.52;;;;;;;21.71;79.42;100447.25;4893489;29;20040;-92
2023/08/19 00:59:47;;;;;;;29.70;17.98;;;;;;;21.81;79.39;100471.75;4885347;29;20037;-93
2023/08/19 01:02:13;;;;;;;31.50;17.00;;;;;;;21.74;79.88;100451.31;4882987;29;20043;-93
2023/08/19 01:04:39;;;;;;;25.42;16.17;;;;;;;21.78;79.82;100455.78;4892291;23;20096;-92
2023/08/19 01:07:41;;;;;;;28.17;18.13;;;;;;;21.90;79.74;100474.38;4874550;29;20626;-95
2023/08/19 01:10:26;;;;;;;26.42;16.95;;;;;;;21.74;79.76;100465.22;4870858;29;20494;-92
2023/08/19 01:13:14;;;;;;;27.85;17.80;;;;;;;21.80;80.05;100481.28;4856056;29;20108;-92
2023/08/19 01:15:57;;;;;;;30.67;18.00;;;;;;;21.62;80.42;100457.78;4873931;29;20127;-95
2023/08/19 01:18:24;;;;;;;26.13;19.27;;;;;;;21.45;79.92;100427.53;4871152;29;20080;-94
2023/08/19 01:20:53;;;;;;;27.95;17.65;;;;;;;21.61;80.51;100455.34;4859856;29;20085;-93
2023/08/19 01:23:22;;;;;;;29.70;18.17;;;;;;;21.73;80.26;100483.91;4893732;29;20058;-93
2023/08/19 01:25:48;;;;;;;30.48;19.00;;;;;;;21.33;80.59;100426.44;4883107;29;20461;-92
2023/08/19 01:28:20;;;;;;;32.58;20.05;;;;;;;21.53;80.71;100452.41;4892675;29;20048;-94
2023/08/19 01:30:49;;;;;;;29.15;18.52;;;;;;;21.65;80.49;100479.31;4893298;29;20064;-92
2023/08/19 01:33:17;;;;;;;32.15;19.85;;;;;;;21.14;80.65;100422.75;4907050;29;20056;-93
2023/08/19 01:39:05;;;;;;;33.83;19.75;;;;;;;21.23;81.31;100446.44;4873942;29;20073;-92
2023/08/19 01:41:56;;;;;;;30.95;19.73;;;;;;;21.48;82.11;100488.81;4857935;29;20044;-92
2023/08/19 01:44:29;;;;;;;36.05;20.90;;;;;;;21.24;82.10;100448.03;4883566;29;20044;-92
2023/08/19 01:48:00;;;;;;;54.30;21.80;;;;;;;21.51;82.02;100471.41;4887980;29;20048;-95
2023/08/19 01:50:26;;;;;;;38.97;20.60;;;;;;;21.37;81.55;100445.22;4866510;29;20063;-93
2023/08/19 01:52:52;;;;;;;42.13;23.20;;;;;;;21.55;81.36;100477.06;4870042;29;20045;-92
2023/08/19 01:56:23;;;;;;;40.23;24.23;;;;;;;21.55;81.50;100489.00;4869546;29;20629;-95
2023/08/19 01:59:39;;;;;;;37.03;23.27;;;;;;;21.53;81.44;100488.56;4841466;29;20339;-93
2023/08/19 02:02:05;;;;;;;33.35;21.85;;;;;;;21.35;81.30;100463.06;4866643;29;20534;-93
2023/08/19 02:04:34;;;;;;;36.57;22.10;;;;;;;21.18;80.96;100441.13;4890597;29;20056;-91
2023/08/19 02:07:00;;;;;;;34.42;21.25;;;;;;;21.47;80.95;100478.88;4844155;29;20308;-90
2023/08/19 02:09:28;;;;;;;32.10;19.30;;;;;;;21.28;80.70;100443.38;4871276;29;20091;-91
2023/08/19 02:11:55;;;;;;;31.45;19.98;;;;;;;21.39;80.64;100460.41;4872266;29;20328;-93
2023/08/19 02:14:21;;;;;;;32.92;20.63;;;;;;;21.41;80.37;100462.81;4896531;23;20143;-93
2023/08/19 02:16:48;;;;;;;40.60;22.67;;;;;;;21.60;80.76;100495.50;4867924;29;20044;-92
2023/08/19 02:19:17;;;;;;;41.65;24.17;;;;;;;21.48;80.68;100476.91;4886389;29;20044;-92
2023/08/19 02:22:00;;;;;;;49.72;29.50;;;;;;;21.34;80.38;100474.53;4872160;29;20135;-92
2023/08/19 02:24:32;;;;;;;62.08;39.30;;;;;;;21.39;80.13;100488.22;4873614;29;20056;-92
2023/08/19 02:27:27;;;;;;;58.35;39.22;;;;;;;21.50;80.24;100499.63;4875548;29;20104;-95
2023/08/19 02:29:59;;;;;;;61.10;38.35;;;;;;;21.35;80.02;100487.28;4895271;29;20040;-94
2023/08/19 02:32:30;;;;;;;54.42;33.05;;;;;;;21.20;80.11;100460.25;4892582;29;20104;-94
2023/08/19 02:38:01;;;;;;;48.13;26.77;;;;;;;21.25;80.09;100469.13;4868135;29;20116;-94
2023/08/19 02:40:30;;;;;;;41.40;25.33;;;;;;;21.34;79.97;100486.50;4868670;29;20514;-92
2023/08/19 02:42:56;;;;;;;40.33;26.98;;;;;;;21.39;80.06;100499.34;4872412;29;20492;-92
2023/08/19 02:46:31;;;;;;;43.47;24.75;;;;;;;21.44;80.13;100512.16;4886962;29;20048;-94
2023/08/19 02:49:22;;;;;;;37.13;20.58;;;;;;;21.45;80.02;100511.00;4908178;29;20064;-94
2023/08/19 02:51:48;;;;;;;33.72;21.80;;;;;;;21.20;80.12;100480.53;4901069;23;20056;-93
2023/08/19 02:55:19;;;;;;;35.50;20.90;;;;;;;21.50;79.93;100514.31;4859262;29;20135;-91
2023/08/19 02:57:54;;;;;;;34.78;20.13;;;;;;;21.33;79.56;100472.91;4935363;23;20065;-94
2023/08/19 03:00:23;;;;;;;28.92;18.88;;;;;;;21.35;79.36;100485.31;4859683;29;20526;-94
2023/08/19 03:02:50;;;;;;;36.88;19.40;;;;;;;21.49;79.22;100503.53;4890195;29;20403;-92
2023/08/19 03:05:20;;;;;;;30.83;19.20;;;;;;;21.45;79.31;100491.53;4905166;29;20060;-91
2023/08/19 03:07:46;;;;;;;30.10;17.92;;;;;;;21.16;79.24;100446.25;4878946;29;20148;-93
2023/08/19 03:10:12;;;;;;;30.42;18.42;;;;;;;21.32;79.14;100472.13;4857372;29;20084;-91
2023/08/19 03:12:38;;;;;;;29.60;18.60;;;;;;;21.50;79.19;100503.19;4887364;29;20180;-91
2023/08/19 03:15:04;;;;;;;31.23;18.23;;;;;;;21.40;79.10;100495.38;4887140;29;20288;-93
2023/08/19 03:17:30;;;;;;;29.13;18.60;;;;;;;21.42;79.32;100497.78;4860262;29;20053;-92
2023/08/19 03:20:15;;;;;;;30.63;18.27;;;;;;;21.49;79.73;100512.72;4875865;29;20052;-91
2023/08/19 03:22:41;;;;;;;27.20;18.15;;;;;;;21.17;80.07;100469.31;4870767;29;20056;-93
2023/08/19 03:25:23;;;;;;;49.80;19.10;;;;;;;21.24;79.72;100461.94;4858568;29;20040;-93
2023/08/19 03:28:15;;;;;;;24.52;17.48;;;;;;;21.67;79.14;100518.72;4905386;23;20072;-94
2023/08/19 03:30:41;;;;;;;24.67;17.58;;;;;;;21.67;78.82;100512.38;4866697;29;20045;-92
2023/08/19 03:33:58;;;;;;;32.97;18.35;;;;;;;21.80;78.91;100519.47;4880825;29;20037;-93
2023/08/19 03:36:25;;;;;;;27.00;16.17;;;;;;;21.68;78.64;100500.06;4837808;29;20051;-91
2023/08/19 03:38:51;;;;;;;34.20;17.92;;;;;;;21.50;78.40;100491.28;4855389;29;20044;-92
2023/08/19 03:41:20;;;;;;;23.17;17.43;;;;;;;21.53;78.89;100498.91;4881791;29;20047;-91
2023/08/19 03:43:46;;;;;;;29.70;17.13;;;;;;;21.50;78.90;100491.28;4857233;29;20130;-91
2023/08/19 03:46:37;;;;;;;28.48;17.35;;;;;;;21.70;78.90;100518.03;4885089;29;20585;-92
2023/08/19 03:49:15;;;;;;;26.80;17.50;;;;;;;21.52;78.42;100483.34;4847979;29;20041;-91
2023/08/19 03:54:26;;;;;;;28.05;17.25;;;;;;;21.49;78.10;100482.13;4867341;29;20419;-91
2023/08/19 03:57:57;;;;;;;26.43;16.67;;;;;;;21.78;78.11;100525.38;4888902;29;20041;-93
2023/08/19 04:01:28;;;;;;;30.00;16.70;;;;;;;21.79;78.05;100523.41;4871087;29;20068;-89
2023/08/19 04:03:57;;;;;;;30.48;16.42;;;;;;;21.59;78.21;100494.69;4859164;29;20045;-89
2023/08/19 04:06:35;;;;;;;29.15;16.98;;;;;;;21.61;78.07;100500.69;4876497;29;20056;-90
2023/08/19 04:09:28;;;;;;;34.35;17.65;;;;;;;21.77;77.94;100523.75;4864282;29;20440;-91
2023/08/19 04:12:18;;;;;;;26.52;16.75;;;;;;;21.59;78.09;100486.34;4909885;29;20063;-91
2023/08/19 04:16:07;;;;;;;27.90;16.48;;;;;;;21.89;77.61;100531.22;4820402;29;20452;-91
2023/08/19 04:18:35;;;;;;;29.63;16.85;;;;;;;21.91;77.82;100536.41;4849686;29;20049;-91
2023/08/19 04:21:05;;;;;;;30.02;16.55;;;;;;;21.73;77.59;100497.81;4850349;29;20050;-89
2023/08/19 04:24:33;;;;;;;33.88;17.58;;;;;;;21.98;77.30;100528.25;4825256;29;20082;-90
2023/08/19 04:27:02;;;;;;;23.80;15.55;;;;;;;21.85;77.31;100512.81;4800789;29;20077;-89
2023/08/19 04:29:28;;;;;;;29.25;16.17;;;;;;;21.87;77.10;100508.50;4786599;29;20656;-88
2023/08/19 04:32:01;;;;;;;43.72;17.25;;;;;;;21.73;77.24;100483.09;4817331;29;20075;-89
2023/08/19 04:34:27;;;;;;;30.27;16.80;;;;;;;21.97;77.64;100523.84;4807618;29;20054;-90
2023/08/19 04:36:55;;;;;;;26.40;17.45;;;;;;;22.06;77.43;100535.63;4847562;29;20596;-89
2023/08/19 04:39:30;;;;;;;37.40;17.67;;;;;;;21.94;77.47;100517.03;4815120;29;20057;-90
2023/08/19 04:42:47;;;;;;;37.60;18.77;;;;;;;22.13;77.32;100533.00;4826063;29;20053;-88
2023/08/19 04:45:14;;;;;;;36.97;19.13;;;;;;;22.20;77.48;100530.41;4840739;29;20046;-90
2023/08/19 04:47:57;;;;;;;29.02;18.70;;;;;;;22.11;76.82;100501.09;4840752;29;20062;-90
2023/08/19 04:50:23;;;;;;;33.65;19.88;;;;;;;22.07;77.05;100489.88;4817880;29;20061;-90
2023/08/19 04:52:53;;;;;;;29.73;17.83;;;;;;;22.16;76.86;100501.66;4872242;29;20057;-91
2023/08/19 04:55:32;;;;;;;34.22;19.65;;;;;;;22.35;77.06;100525.16;4862123;29;20044;-90
2023/08/19 04:57:58;;;;;;;41.75;18.27;;;;;;;22.16;76.71;100496.09;4842576;29;20045;-93
2023/08/19 05:00:32;;;;;;;32.22;19.75;;;;;;;22.32;76.89;100506.38;4864581;29;20044;-90
2023/08/19 05:03:03;;;;;;;33.42;18.98;;;;;;;22.33;76.81;100511.59;4857944;29;20053;-91
2023/08/19 05:05:40;;;;;;;34.97;20.08;;;;;;;22.15;77.03;100477.78;4863855;29;20049;-91
2023/08/19 05:08:10;;;;;;;38.70;20.25;;;;;;;22.25;77.07;100488.34;4867123;29;20044;-94
2023/08/19 05:10:37;;;;;;;34.60;19.35;;;;;;;22.50;76.96;100530.69;4862083;29;20128;-88
2023/08/19 05:13:03;;;;;;;37.92;19.63;;;;;;;22.43;76.25;100505.47;4870526;29;20056;-91
2023/08/19 05:15:42;;;;;;;32.40;19.55;;;;;;;22.45;76.39;100503.13;4875504;29;20483;-91
2023/08/19 05:18:33;;;;;;;36.22;20.23;;;;;;;22.71;76.31;100518.38;4891769;29;20112;-92
2023/08/19 05:20:59;;;;;;;39.25;19.85;;;;;;;22.59;76.09;100505.41;4884182;29;20112;-92
2023/08/19 05:23:46;;;;;;;53.35;20.88;;;;;;;22.73;76.06;100508.50;4889153;29;20048;-89
2023/08/19 05:26:18;;;;;;;43.80;20.67;;;;;;;22.89;76.18;100507.63;4821722;29;20050;-94
2023/08/19 05:29:35;;;;;;;43.42;21.42;;;;;;;23.07;76.11;100517.16;4806431;29;20082;-93
2023/08/19 05:32:01;;;;;;;46.72;21.25;;;;;;;22.91;75.63;100489.34;4824607;29;20038;-92
2023/08/19 05:34:42;;;;;;;63.13;22.73;;;;;;;22.95;75.65;100487.47;4906889;23;20226;-91
2023/08/19 05:37:08;;;;;;;61.00;21.50;;;;;;;23.29;75.14;100531.53;4899391;29;20064;-92
2023/08/19 05:39:49;;;;;;;47.15;23.38;;;;;;;23.00;74.60;100477.97;4868939;29;20097;-91
2023/08/19 05:43:09;;;;;;;40.92;22.20;;;;;;;23.42;74.38;100528.22;4882245;29;20053;-92
2023/08/19 05:45:35;;;;;;;39.75;22.95;;;;;;;23.35;73.86;100505.75;4882265;29;20064;-92
2023/08/19 05:48:03;;;;;;;47.92;22.05;;;;;;;23.42;74.32;100510.66;4898463;29;20052;-92
2023/08/19 05:50:31;;;;;;;44.13;24.50;;;;;;;23.37;74.00;100502.59;4882161;29;20067;-93
2023/08/19 05:52:57;;;;;;;57.05;22.40;;;;;;;23.32;73.52;100488.97;4894715;29;20036;-93
2023/08/19 05:55:24;;;;;;;52.40;21.88;;;;;;;23.34;72.79;100486.59;4880199;29;20051;-92
2023/08/19 05:57:53;;;;;;;53.30;21.60;;;;;;;23.66;73.40;100504.72;4861381;29;20044;-93
2023/08/19 06:01:16;;;;;;;39.03;21.30;;;;;;;23.89;72.98;100521.47;4874950;29;20096;-93
2023/08/19 06:03:45;;;;;;;43.33;20.35;;;;;;;23.78;73.07;100484.19;4893949;29;20040;-92
2023/08/19 06:06:11;;;;;;;29.60;18.55;;;;;;;23.81;72.83;100486.25;4896457;29;20044;-93
2023/08/19 06:08:37;;;;;;;34.15;18.90;;;;;;;24.10;72.13;100518.22;4880024;29;20123;-91
2023/08/19 06:11:06;;;;;;;34.60;19.98;;;;;;;24.11;71.71;100507.88;4867519;29;20041;-92
2023/08/19 06:13:34;;;;;;;44.10;20.23;;;;;;;24.04;71.21;100508.56;4862776;29;20056;-91
2023/08/19 06:16:01;;;;;;;40.47;18.77;;;;;;;24.10;70.69;100511.81;4894923;29;20055;-91
2023/08/19 06:18:53;;;;;;;38.33;18.67;;;;;;;24.24;71.95;100517.66;4903785;29;20044;-90
2023/08/19 06:22:06;;;;;;;34.42;18.33;;;;;;;24.24;70.93;100511.22;4901008;29;20048;-91
2023/08/19 06:24:35;;;;;;;29.25;17.40;;;;;;;24.10;71.33;100473.50;4999125;23;20127;-93
2023/08/19 06:28:09;;;;;;;35.80;16.85;;;;;;;24.50;70.93;100528.03;4882019;29;20071;-90
2023/08/19 06:31:28;;;;;;;29.83;17.85;;;;;;;24.49;71.02;100525.59;4915395;29;20044;-91
2023/08/19 06:34:00;;;;;;;35.92;17.42;;;;;;;24.25;70.41;100490.50;4913121;29;20048;-92
2023/08/19 06:36:30;;;;;;;34.35;18.33;;;;;;;24.35;69.86;100501.03;4915707;29;20044;-90
2023/08/19 06:39:06;;;;;;;52.63;19.10;;;;;;;24.63;69.79;100533.38;4897567;29;20048;-90
2023/08/19 06:41:39;;;;;;;39.73;18.97;;;;;;;24.47;69.04;100489.66;4919995;29;20052;-87
2023/08/19 06:44:08;;;;;;;40.67;19.63;;;;;;;24.71;67.78;100541.50;4937068;29;20288;-87
2023/08/19 06:46:35;;;;;;;37.42;18.38;;;;;;;24.78;68.97;100537.97;4936432;29;20051;-87
2023/08/19 06:49:02;;;;;;;38.55;20.50;;;;;;;24.78;68.25;100526.78;4911103;29;20140;-89
2023/08/19 06:51:29;;;;;;;38.25;18.50;;;;;;;24.77;68.60;100523.19;4918620;29;20175;-88
2023/08/19 06:53:55;;;;;;;27.30;18.25;;;;;;;24.87;68.10;100530.13;4885977;29;20043;-86
2023/08/19 06:56:37;;;;;;;35.83;17.35;;;;;;;25.08;68.29;100540.75;4901836;29;20057;-87
2023/08/19 06:59:19;;;;;;;38.90;16.20;;;;;;;25.30;67.46;100541.84;4886459;29;20055;-89
2023/08/19 07:01:51;;;;;;;41.47;18.85;;;;;;;25.31;66.69;100540.63;4871685;29;20044;-87
2023/08/19 07:04:27;;;;;;;39.53;18.80;;;;;;;25.19;67.94;100524.09;4911416;29;20569;-88
2023/08/19 07:06:58;;;;;;;45.55;20.20;;;;;;;25.28;67.64;100539.41;4897182;29;20075;-89
2023/08/19 07:09:25;;;;;;;41.78;15.68;;;;;;;25.33;67.22;100529.88;4900837;29;20592;-88
2023/08/19 07:11:58;;;;;;;44.13;19.35;;;;;;;25.48;66.71;100540.00;4904579;29;20047;-89
2023/08/19 07:14:25;;;;;;;48.97;19.50;;;;;;;25.42;67.32;100533.16;4921016;29;20074;-88
2023/08/19 07:16:54;;;;;;;46.92;19.77;;;;;;;25.49;68.07;100549.22;4917724;29;20048;-88
2023/08/19 07:19:31;;;;;;;46.10;19.70;;;;;;;25.53;67.80;100531.28;4917818;29;20054;-90
2023/08/19 07:21:58;;;;;;;39.92;20.00;;;;;;;25.59;66.65;100525.31;4913020;29;20051;-87
2023/08/19 07:24:25;;;;;;;;;;;;;;;25.69;65.37;100539.41;4901472;29;21370;-87
2023/08/19 07:26:52;;;;;;;45.92;22.27;;;;;;;25.50;64.60;100532.03;4916405;29;19930;-88
2023/08/19 07:29:19;;;;;;;54.90;23.80;;;;;;;25.48;64.83;100548.41;4915872;29;20040;-88
2023/08/19 07:31:47;;;;;;;52.78;24.08;;;;;;;25.52;64.76;100543.66;4900258;29;20040;-89
2023/08/19 07:34:14;;;;;;;50.90;22.90;;;;;;;25.65;64.36;100544.19;4914007;29;20048;-88
2023/08/19 07:36:42;;;;;;;45.28;23.88;;;;;;;25.80;63.41;100545.16;4905808;29;20395;-88
2023/08/19 07:39:08;;;;;;;33.13;21.95;;;;;;;26.01;63.94;100548.13;4921883;29;20040;-90
2023/08/19 07:41:34;;;;;;;52.15;25.00;;;;;;;25.98;62.71;100534.09;4915436;29;20421;-87
2023/08/19 07:44:00;;;;;;;55.00;24.67;;;;;;;26.02;63.19;100541.31;4901452;29;20040;-90
2023/08/19 07:46:26;;;;;;;109.00;33.63;;;;;;;25.91;64.19;100512.41;4922719;29;20043;-87
2023/08/19 07:48:52;;;;;;;46.70;23.02;;;;;;;26.02;63.14;100543.31;4924182;29;20047;-90
2023/08/19 07:51:18;;;;;;;39.85;20.58;;;;;;;26.18;64.01;100543.06;4918756;29;20093;-88
2023/08/19 07:53:44;;;;;;;31.92;18.33;;;;;;;26.34;63.31;100539.97;4920311;29;20453;-89
2023/08/19 07:56:10;;;;;;;30.50;16.65;;;;;;;26.39;63.08;100509.56;4880566;29;20040;-87
2023/08/19 07:58:36;;;;;;;32.28;17.75;;;;;;;26.65;62.43;100532.94;4927140;29;20410;-89
2023/08/19 08:01:05;;;;;;;43.83;20.58;;;;;;;26.60;61.24;100534.13;4895485;29;20060;-93
2023/08/19 08:03:32;;;;;;;45.47;21.77;;;;;;;26.35;60.11;100507.91;4912585;29;20131;-87
2023/08/19 08:06:00;;;;;;;38.17;18.55;;;;;;;26.47;60.10;100521.63;4931518;29;20556;-88
2023/08/19 08:14:41;;;;;;;86.15;19.67;;;;;;;26.65;60.82;100502.09;4916524;29;20071;-91
2023/08/19 08:17:08;;;;;;;38.83;19.45;;;;;;;26.86;58.88;100523.84;4922334;29;20039;-88
2023/08/19 08:19:38;;;;;;;36.97;18.60;;;;;;;26.85;58.24;100520.22;4917839;29;20040;-90
2023/08/19 08:22:13;;;;;;;37.10;19.02;;;;;;;26.57;58.07;100475.22;4890469;29;20048;-91
2023/08/19 08:24:43;;;;;;;48.25;19.10;;;;;;;26.80;58.40;100506.59;4907853;29;20052;-91
2023/08/19 08:27:17;;;;;;;48.08;18.70;;;;;;;26.73;58.69;100495.34;4926607;29;20066;-90
2023/08/19 08:30:05;;;;;;;43.53;19.25;;;;;;;26.70;59.58;100487.69;4911138;29;20040;-90
2023/08/19 08:32:31;;;;;;;61.85;20.17;;;;;;;26.80;58.36;100502.97;4894003;29;20048;-91
2023/08/19 08:35:16;;;;;;;42.50;18.50;;;;;;;26.89;58.23;100512.63;4898069;29;20469;-91
2023/08/19 08:37:47;;;;;;;72.78;22.75;;;;;;;26.77;58.30;100473.69;4925607;29;20123;-89
2023/08/19 08:40:19;;;;;;;54.95;18.73;;;;;;;27.02;56.73;100496.25;4897531;29;20063;-91
2023/08/19 08:43:18;;;;;;;40.00;17.73;;;;;;;26.84;56.81;100456.88;4877757;29;20076;-89
2023/08/19 08:45:49;;;;;;;29.52;16.85;;;;;;;27.29;57.05;100499.53;4919756;29;20048;-89
2023/08/19 08:48:44;;;;;;;29.60;16.55;;;;;;;27.49;55.25;100507.59;4912371;29;20048;-92
2023/08/19 08:51:13;;;;;;;39.53;18.33;;;;;;;27.29;55.68;100468.66;4927038;29;20048;-90
2023/08/19 08:53:40;;;;;;;35.72;17.25;;;;;;;27.31;56.08;100466.22;4918798;29;20044;-91
2023/08/19 08:56:19;;;;;;;41.42;18.02;;;;;;;27.43;56.17;100492.34;4914514;29;20051;-91
2023/08/19 08:58:45;;;;;;;32.08;17.65;;;;;;;27.20;54.88;100484.28;4897737;29;20036;-92
2023/08/19 09:01:12;;;;;;;43.63;17.88;;;;;;;27.01;55.04;100482.59;4884267;29;20521;-94
2023/08/19 09:03:39;;;;;;;62.75;20.63;;;;;;;27.04;55.49;100499.44;4893564;29;20128;-89
2023/08/19 09:06:15;;;;;;;46.00;18.40;;;;;;;26.86;56.54;100490.97;4887284;29;20076;-92
2023/08/19 09:09:09;;;;;;;51.65;18.63;;;;;;;26.70;55.66;100482.88;4905881;29;20063;-92
2023/08/19 09:11:48;;;;;;;50.03;17.65;;;;;;;26.60;57.02;100452.78;4898451;29;20063;-91
2023/08/19 09:14:21;;;;;;;45.90;16.35;;;;;;;26.94;56.18;100484.19;4878257;29;20044;-91
2023/08/19 09:16:51;;;;;;;46.97;16.10;;;;;;;26.80;55.92;100444.84;4916089;29;20044;-90
2023/08/19 09:19:18;;;;;;;30.40;16.25;;;;;;;27.21;53.49;100489.47;4920397;29;20122;-90
2023/08/19 09:21:45;;;;;;;40.67;15.68;;;;;;;27.19;53.50;100461.03;4886256;29;20048;-92
2023/08/19 09:24:19;;;;;;;31.27;15.32;;;;;;;27.22;51.80;100448.16;4922058;29;20024;-93
2023/08/19 09:27:22;;;;;;;28.73;16.02;;;;;;;27.28;53.93;100424.91;4902387;29;20056;-93
2023/08/19 09:29:50;;;;;;;30.58;14.95;;;;;;;27.64;51.10;100476.28;4913378;29;20044;-93
2023/08/19 09:32:26;;;;;;;24.30;15.63;;;;;;;27.56;53.48;100455.03;4900372;29;20040;-91
2023/08/19 09:35:14;;;;;;;28.60;15.85;;;;;;;27.76;53.45;100466.69;4901297;29;20032;-89
2023/08/19 09:37:47;;;;;;;23.92;15.82;;;;;;;27.67;52.13;100432.53;4919964;29;20058;-89
2023/08/19 09:41:18;;;;;;;31.05;15.10;;;;;;;28.08;52.28;100474.31;4920825;29;20048;-90
2023/08/19 09:44:16;;;;;;;37.65;15.68;;;;;;;28.24;51.16;100466.22;4907920;29;20106;-90
2023/08/19 09:46:49;;;;;;;62.20;18.75;;;;;;;28.12;48.63;100455.41;4875961;29;20116;-89
2023/08/19 09:49:37;;;;;;;41.20;16.65;;;;;;;28.03;49.95;100471.88;4893955;29;20296;-91
2023/08/19 09:52:19;;;;;;;34.10;17.27;;;;;;;27.69;48.63;100435.78;4887603;29;20040;-90
2023/08/19 09:54:54;;;;;;;;;;;;;;;27.98;51.42;100472.28;4895769;29;20138;-90
2023/08/19 09:57:34;;;;;;;20.88;14.43;;;;;;;27.80;50.77;100416.09;4910041;29;19930;-90
2023/08/19 10:00:07;;;;;;;20.77;15.07;;;;;;;27.81;51.51;100421.31;4931015;29;20087;-91
2023/08/19 10:03:25;;;;;;;22.85;14.70;;;;;;;28.12;49.91;100471.47;4924053;29;20060;-90
2023/08/19 10:11:45;;;;;;;34.05;16.65;;;;;;;27.97;45.89;100448.19;4926346;29;20136;-89
2023/08/19 10:18:17;;;;;;;30.95;16.52;;;;;;;28.01;47.18;100432.13;4827849;29;20057;-91
2023/08/19 10:20:52;;;;;;;53.40;17.42;;;;;;;28.08;47.58;100420.88;4907089;23;20047;-91
2023/08/19 10:27:26;;;;;;;28.48;16.20;;;;;;;28.37;47.52;100458.13;2122251;23;20054;-94
2023/08/19 10:29:58;;;;;;;42.58;16.92;;;;;;;28.29;47.18;100436.88;4839914;29;20057;-89
2023/08/19 10:32:33;;;;;;;29.48;15.50;;;;;;;28.42;46.41;100457.75;4867950;29;20087;-92
2023/08/19 10:35:10;;;;;;;21.98;14.77;;;;;;;28.33;47.28;100423.59;4865454;29;20046;-91
2023/08/19 10:37:50;;;;;;;37.47;15.57;;;;;;;28.38;44.63;100434.44;4852353;29;20555;-90
2023/08/19 10:41:03;;;;;;;47.90;15.48;;;;;;;28.51;46.33;100452.50;4858963;29;20060;-93
2023/08/19 10:47:43;;;;;;;37.22;15.60;;;;;;;28.55;49.37;100427.16;4838074;29;20065;-91
2023/08/19 10:50:11;;;;;;;38.70;15.23;;;;;;;28.61;47.93;100405.84;4823616;29;20054;-87
2023/08/19 10:52:59;;;;;;;27.55;14.85;;;;;;;29.01;45.01;100431.78;4837080;29;20042;-89
2023/08/19 10:55:44;;;;;;;34.60;15.55;;;;;;;28.95;47.76;100405.25;4829128;29;20099;-90
2023/08/19 10:58:30;;;;;;;21.58;14.75;;;;;;;29.18;44.41;100419.59;4837416;29;20497;-91
2023/08/19 11:00:57;;;;;;;23.42;15.35;;;;;;;29.14;42.71;100418.00;4806005;29;20084;-91
2023/08/19 11:03:33;;;;;;;25.85;15.32;;;;;;;29.09;44.04;100407.97;4815305;29;20580;-87
2023/08/19 11:06:07;;;;;;;46.10;16.33;;;;;;;29.29;45.44;100424.34;4843661;29;20052;-89
2023/08/19 11:09:00;;;;;;;56.05;16.15;;;;;;;29.33;43.56;100411.81;4887924;29;20049;-86
2023/08/19 11:11:27;;;;;;;51.10;15.48;;;;;;;29.42;42.40;100406.53;4901192;29;20052;-85
2023/08/19 11:13:53;;;;;;;;;;;;;;;29.40;42.66;100408.16;4915342;29;20089;-87
2023/08/19 11:16:28;;;;;;;25.85;14.63;;;;;;;29.24;41.91;100392.59;4894344;29;19923;-85
2023/08/19 11:19:00;;;;;;;26.90;14.57;;;;;;;29.25;42.21;100397.00;4908943;29;20054;-95
2023/08/19 11:21:31;;;;;;;30.33;15.18;;;;;;;28.99;42.24;100386.31;4914750;29;20064;-84
2023/08/19 11:23:58;;;;;;;20.25;14.73;;;;;;;28.86;42.13;100383.19;4897492;29;20043;-86
2023/08/19 11:26:24;;;;;;;53.63;16.63;;;;;;;28.97;42.64;100403.63;4903362;29;20422;-84
2023/08/19 11:28:50;;;;;;;;;;;;;;;28.74;44.08;100401.34;4908198;29;20069;-88
2023/08/19 11:34:32;;;;;;;66.28;16.65;;;;;;;28.40;43.18;100349.69;4875211;29;20143;-89
2023/08/19 11:43:09;;;;;;;49.63;15.07;;;;;;;29.15;41.53;100395.06;4866149;29;20041;-89
2023/08/19 11:45:38;;;;;;;26.40;14.48;;;;;;;29.14;42.53;100392.66;4852560;29;20056;-87
2023/08/19 11:48:30;;;;;;;28.85;14.38;;;;;;;28.95;41.25;100343.31;4875898;29;20048;-88
2023/08/19 11:54:32;;;;;;;29.00;14.05;;;;;;;29.17;42.53;100381.38;4837082;29;20106;-88
2023/08/19 11:57:15;;;;;;;30.40;14.88;;;;;;;29.19;41.04;100384.56;4835305;29;20046;-88
2023/08/19 11:59:42;;;;;;;29.42;14.75;;;;;;;29.42;44.91;100371.91;4830492;29;20714;-89
2023/08/19 12:02:18;;;;;;;26.33;14.25;;;;;;;29.31;44.45;100318.50;4802943;29;20060;-88
2023/08/19 12:04:56;;;;;;;24.00;13.80;;;;;;;29.75;43.39;100367.59;4792073;29;20137;-88
2023/08/19 12:07:30;;;;;;;40.67;14.90;;;;;;;29.75;40.53;100378.06;4833778;29;20050;-89
2023/08/19 12:10:36;;;;;;;26.65;14.32;;;;;;;29.52;43.48;100331.56;4821149;29;20038;-88
2023/08/19 12:13:04;;;;;;;;;;;;;;;29.99;42.42;100377.00;4843459;29;20345;-88
2023/08/19 12:15:48;;;;;;;32.75;14.98;;;;;;;29.99;42.37;100345.97;4871188;29;19924;-87
2023/08/19 12:18:17;;;;;;;47.00;16.80;;;;;;;30.10;41.37;100369.22;4867053;29;20073;-89
2023/08/19 12:20:45;;;;;;;34.50;14.80;;;;;;;30.23;41.77;100360.22;4864290;29;20132;-89
2023/08/19 12:23:30;;;;;;;31.25;15.18;;;;;;;30.33;41.12;100367.75;4851781;29;20081;-93
2023/08/19 12:26:23;;;;;;;35.72;14.85;;;;;;;29.88;39.24;100328.41;4861022;29;20066;-91
2023/08/19 12:29:25;;;;;;;30.45;14.98;;;;;;;30.12;39.46;100368.78;4837800;29;20069;-92
2023/08/19 12:32:03;;;;;;;37.30;17.65;;;;;;;30.17;39.06;100366.31;4870672;29;20057;-92
2023/08/19 12:34:29;;;;;;;68.03;19.35;;;;;;;30.08;39.36;100322.94;4838707;29;20066;-91
2023/08/19 12:37:15;;;;;;;31.80;14.90;;;;;;;30.24;39.25;100334.44;4828744;29;20091;-92
2023/08/19 12:40:09;;;;;;;23.30;14.68;;;;;;;30.40;39.87;100351.53;4815263;29;20246;-90
2023/08/19 12:43:01;;;;;;;43.55;14.60;;;;;;;30.05;40.91;100340.69;4844408;29;20048;-90
2023/08/19 12:45:30;;;;;;;34.70;15.07;;;;;;;29.92;42.60;100343.25;4866708;29;20045;-91
2023/08/19 12:47:57;;;;;;;43.28;15.15;;;;;;;29.66;39.13;100339.09;4917406;23;20147;-91